sensor_id;sensor_type;location;lat;lon;timestamp;pressure;altitude;pressure_sealevel;temperature;humidity
48390;BME280;34643;47.964;7.982;2023-04-05T00:03:20;97090.47;;;17.94;53.68
48390;BME280;34643;47.964;7.982;2023-04-05T00:08:20;97094.03;;;17.93;53.89
48390;BME280;34643;47.964;7.982;2023-04-05T00:13:25;97088.00;;;17.93;53.64
48390;BME280;34643;47.964;7.982;2023-04-05T00:18:26;97088.81;;;17.93;53.59
48390;BME280;34643;47.964;7.982;2023-04-05T00:23:26;97085.38;;;17.93;53.61
48390;BME280;34643;47.964;7.982;2023-04-05T00:28:27;97078.59;;;17.90;53.73
48390;BME280;34643;47.964;7.982;2023-04-05T00:33:27;97079.41;;;17.91;53.32
48390;BME280;34643;47.964;7.982;2023-04-05T00:38:27;97076.94;;;17.89;53.49
48390;BME280;34643;47.964;7.982;2023-04-05T00:43:28;97079.41;;;17.91;53.62
48390;BME280;34643;47.964;7.982;2023-04-05T00:48:28;97071.72;;;17.89;53.48
48390;BME280;34643;47.964;7.982;2023-04-05T00:53:28;97070.84;;;17.89;53.45
48390;BME280;34643;47.964;7.982;2023-04-05T00:58:29;97069.22;;;17.88;53.41
48390;BME280;34643;47.964;7.982;2023-04-05T01:03:30;97062.31;;;17.86;53.46
48390;BME280;34643;47.964;7.982;2023-04-05T01:08:38;97064.81;;;17.88;53.45
48390;BME280;34643;47.964;7.982;2023-04-05T01:13:39;97057.91;;;17.87;53.38
48390;BME280;34643;47.964;7.982;2023-04-05T01:18:40;97054.47;;;17.86;53.18
48390;BME280;34643;47.964;7.982;2023-04-05T01:34:12;97018.00;;;17.85;53.23
48390;BME280;34643;47.964;7.982;2023-04-05T01:39:16;97018.88;;;17.85;53.26
48390;BME280;34643;47.964;7.982;2023-04-05T01:44:18;97004.03;;;17.86;53.26
48390;BME280;34643;47.964;7.982;2023-04-05T01:49:18;97010.91;;;17.87;53.12
48390;BME280;34643;47.964;7.982;2023-04-05T01:54:19;97014.47;;;17.86;53.19
48390;BME280;34643;47.964;7.982;2023-04-05T01:59:19;97004.84;;;17.86;53.05
48390;BME280;34643;47.964;7.982;2023-04-05T02:04:19;97000.47;;;17.87;53.13
48390;BME280;34643;47.964;7.982;2023-04-05T02:09:20;96997.84;;;17.87;53.25
48390;BME280;34643;47.964;7.982;2023-04-05T02:14:20;96981.44;;;17.85;53.25
48390;BME280;34643;47.964;7.982;2023-04-05T02:19:21;96977.91;;;17.86;53.00
48390;BME280;34643;47.964;7.982;2023-04-05T02:24:22;96978.81;;;17.85;53.06
48390;BME280;34643;47.964;7.982;2023-04-05T02:29:22;96968.47;;;17.83;53.11
48390;BME280;34643;47.964;7.982;2023-04-05T02:34:22;96970.28;;;17.83;52.97
48390;BME280;34643;47.964;7.982;2023-04-05T02:39:23;96969.34;;;17.84;53.05
48390;BME280;34643;47.964;7.982;2023-04-05T02:44:23;96971.94;;;17.84;53.04
48390;BME280;34643;47.964;7.982;2023-04-05T02:49:27;96965.06;;;17.83;52.92
48390;BME280;34643;47.964;7.982;2023-04-05T02:54:29;96968.63;;;17.82;52.85
48390;BME280;34643;47.964;7.982;2023-04-05T02:59:33;96966.00;;;17.82;53.00
48390;BME280;34643;47.964;7.982;2023-04-05T03:04:35;96980.81;;;17.81;53.07
48390;BME280;34643;47.964;7.982;2023-04-05T03:09:36;96969.56;;;17.81;53.02
48390;BME280;34643;47.964;7.982;2023-04-05T03:14:40;96966.13;;;17.80;53.05
48390;BME280;34643;47.964;7.982;2023-04-05T03:19:43;96969.66;;;17.79;52.70
48390;BME280;34643;47.964;7.982;2023-04-05T03:24:55;96967.06;;;17.79;52.76
48390;BME280;34643;47.964;7.982;2023-04-05T03:29:56;96967.88;;;17.80;52.86
48390;BME280;34643;47.964;7.982;2023-04-05T03:34:57;96968.00;;;17.78;52.71
48390;BME280;34643;47.964;7.982;2023-04-05T03:39:58;96964.56;;;17.78;52.97
48390;BME280;34643;47.964;7.982;2023-04-05T03:44:58;96969.78;;;17.78;52.80
48390;BME280;34643;47.964;7.982;2023-04-05T03:49:59;96962.91;;;17.77;52.71
48390;BME280;34643;47.964;7.982;2023-04-05T03:55:01;96952.56;;;17.75;52.62
48390;BME280;34643;47.964;7.982;2023-04-05T04:00:05;96951.59;;;17.76;52.63
48390;BME280;34643;47.964;7.982;2023-04-05T04:05:40;96954.09;;;17.78;53.02
48390;BME280;34643;47.964;7.982;2023-04-05T04:10:44;96955.78;;;17.79;52.87
48390;BME280;34643;47.964;7.982;2023-04-05T04:15:57;96959.81;;;17.83;53.08
48390;BME280;34643;47.964;7.982;2023-04-05T04:21:32;96961.19;;;17.89;52.76
48390;BME280;34643;47.964;7.982;2023-04-05T04:26:37;96959.78;;;17.96;52.84
48390;BME280;34643;47.964;7.982;2023-04-05T04:32:09;96959.66;;;17.97;53.17
48390;BME280;34643;47.964;7.982;2023-04-05T04:37:32;96963.00;;;17.99;52.83
48390;BME280;34643;47.964;7.982;2023-04-05T04:43:13;96963.00;;;17.99;53.33
48390;BME280;34643;47.964;7.982;2023-04-05T04:48:48;96970.84;;;17.99;53.40
48390;BME280;34643;47.964;7.982;2023-04-05T04:54:07;96960.38;;;17.99;53.16
48390;BME280;34643;47.964;7.982;2023-04-05T04:59:07;96964.69;;;18.00;53.13
48390;BME280;34643;47.964;7.982;2023-04-05T05:04:08;96963.97;;;17.98;53.42
48390;BME280;34643;47.964;7.982;2023-04-05T05:09:10;96964.91;;;17.97;53.33
48390;BME280;34643;47.964;7.982;2023-04-05T05:14:19;96972.00;;;17.95;53.51
48390;BME280;34643;47.964;7.982;2023-04-05T05:19:20;96977.25;;;17.95;53.58
48390;BME280;34643;47.964;7.982;2023-04-05T05:24:24;96973.81;;;17.95;53.50
48390;BME280;34643;47.964;7.982;2023-04-05T05:29:25;96973.09;;;17.93;53.58
48390;BME280;34643;47.964;7.982;2023-04-05T05:34:26;96973.41;;;17.88;53.62
48390;BME280;34643;47.964;7.982;2023-04-05T05:39:30;96979.56;;;17.87;53.76
48390;BME280;34643;47.964;7.982;2023-04-05T05:44:30;96988.38;;;17.86;53.63
48390;BME280;34643;47.964;7.982;2023-04-05T05:49:30;96986.75;;;17.83;53.75
48390;BME280;34643;47.964;7.982;2023-04-05T05:54:31;96990.88;;;17.88;53.83
48390;BME280;34643;47.964;7.982;2023-04-05T05:59:31;96994.69;;;17.95;54.01
48390;BME280;34643;47.964;7.982;2023-04-05T06:04:31;96993.72;;;17.96;54.09
48390;BME280;34643;47.964;7.982;2023-04-05T06:09:33;96991.47;;;17.91;54.28
48390;BME280;34643;47.964;7.982;2023-04-05T06:14:34;96986.66;;;17.85;54.05
48390;BME280;34643;47.964;7.982;2023-04-05T06:19:34;96992.13;;;17.82;53.96
48390;BME280;34643;47.964;7.982;2023-04-05T06:24:34;97000.06;;;17.80;53.88
48390;BME280;34643;47.964;7.982;2023-04-05T06:29:35;96995.88;;;17.78;53.73
48390;BME280;34643;47.964;7.982;2023-04-05T06:34:35;96999.44;;;17.77;53.66
48390;BME280;34643;47.964;7.982;2023-04-05T06:39:36;96990.75;;;17.76;53.73
48390;BME280;34643;47.964;7.982;2023-04-05T06:44:36;96992.66;;;17.74;53.57
48390;BME280;34643;47.964;7.982;2023-04-05T06:49:36;96995.38;;;17.73;53.65
48390;BME280;34643;47.964;7.982;2023-04-05T06:54:36;96988.63;;;17.70;53.53
48390;BME280;34643;47.964;7.982;2023-04-05T06:59:39;96984.31;;;17.69;53.60
48390;BME280;34643;47.964;7.982;2023-04-05T07:04:39;96986.13;;;17.68;53.47
48390;BME280;34643;47.964;7.982;2023-04-05T07:09:40;96987.03;;;17.67;53.55
48390;BME280;34643;47.964;7.982;2023-04-05T07:14:40;96990.63;;;17.66;53.59
48390;BME280;34643;47.964;7.982;2023-04-05T07:19:40;96981.97;;;17.66;53.35
48390;BME280;34643;47.964;7.982;2023-04-05T07:24:43;96983.72;;;17.65;53.19
48390;BME280;34643;47.964;7.982;2023-04-05T07:29:44;96991.66;;;17.64;53.36
48390;BME280;34643;47.964;7.982;2023-04-05T07:34:47;96986.56;;;17.62;53.26
48390;BME280;34643;47.964;7.982;2023-04-05T07:39:47;96990.94;;;17.62;53.32
48390;BME280;34643;47.964;7.982;2023-04-05T07:44:47;96990.81;;;17.63;53.24
48390;BME280;34643;47.964;7.982;2023-04-05T07:49:48;96994.75;;;17.69;53.07
48390;BME280;34643;47.964;7.982;2023-04-05T07:54:48;96992.16;;;17.69;53.11
48390;BME280;34643;47.964;7.982;2023-04-05T07:59:49;96994.06;;;17.67;53.18
48390;BME280;34643;47.964;7.982;2023-04-05T08:04:53;97000.59;;;16.99;48.06
48390;BME280;34643;47.964;7.982;2023-04-05T08:09:54;96992.19;;;17.32;48.71
48390;BME280;34643;47.964;7.982;2023-04-05T08:14:56;96989.03;;;17.40;49.13
48390;BME280;34643;47.964;7.982;2023-04-05T08:19:57;96985.47;;;17.41;49.25
48390;BME280;34643;47.964;7.982;2023-04-05T08:24:57;96977.53;;;17.42;49.26
48390;BME280;34643;47.964;7.982;2023-04-05T08:29:57;96973.19;;;17.43;49.13
48390;BME280;34643;47.964;7.982;2023-04-05T08:34:57;96971.50;;;17.42;49.08
48390;BME280;34643;47.964;7.982;2023-04-05T08:39:58;96977.63;;;17.41;49.23
48390;BME280;34643;47.964;7.982;2023-04-05T08:44:58;96974.31;;;17.39;49.11
48390;BME280;34643;47.964;7.982;2023-04-05T08:49:59;96975.28;;;17.38;49.02
48390;BME280;34643;47.964;7.982;2023-04-05T08:55:00;96978.59;;;17.40;47.17
48390;BME280;34643;47.964;7.982;2023-04-05T09:00:00;96979.16;;;17.32;46.48
48390;BME280;34643;47.964;7.982;2023-04-05T09:05:02;96979.78;;;17.23;45.71
48390;BME280;34643;47.964;7.982;2023-04-05T09:10:03;96978.97;;;17.22;45.70
48390;BME280;34643;47.964;7.982;2023-04-05T09:15:05;96980.50;;;17.25;46.06
48390;BME280;34643;47.964;7.982;2023-04-05T09:20:06;96975.19;;;17.26;46.03
48390;BME280;34643;47.964;7.982;2023-04-05T09:25:07;96972.56;;;17.26;46.12
48390;BME280;34643;47.964;7.982;2023-04-05T09:30:09;96975.41;;;17.23;46.55
48390;BME280;34643;47.964;7.982;2023-04-05T09:35:20;96971.13;;;17.22;47.12
48390;BME280;34643;47.964;7.982;2023-04-05T09:40:21;96957.25;;;17.22;47.37
48390;BME280;34643;47.964;7.982;2023-04-05T09:45:22;96961.63;;;17.21;47.33
48390;BME280;34643;47.964;7.982;2023-04-05T09:50:30;96963.41;;;17.21;47.33
48390;BME280;34643;47.964;7.982;2023-04-05T09:55:35;96957.25;;;17.22;47.75
48390;BME280;34643;47.964;7.982;2023-04-05T10:00:36;96951.19;;;17.21;47.57
48390;BME280;34643;47.964;7.982;2023-04-05T10:05:37;96952.03;;;17.22;47.95
48390;BME280;34643;47.964;7.982;2023-04-05T10:10:39;96961.63;;;17.21;48.13
48390;BME280;34643;47.964;7.982;2023-04-05T10:15:46;96953.81;;;17.21;47.96
48390;BME280;34643;47.964;7.982;2023-04-05T10:20:49;96956.41;;;17.21;48.16
48390;BME280;34643;47.964;7.982;2023-04-05T10:30:54;96953.19;;;17.18;48.05
48390;BME280;34643;47.964;7.982;2023-04-05T10:41:13;96955.94;;;17.16;47.84
48390;BME280;34643;47.964;7.982;2023-04-05T10:46:17;96951.63;;;17.15;48.13
48390;BME280;34643;47.964;7.982;2023-04-05T10:51:19;96952.56;;;17.14;48.10
48390;BME280;34643;47.964;7.982;2023-04-05T10:56:19;96957.69;;;17.16;47.98
48390;BME280;34643;47.964;7.982;2023-04-05T11:01:20;96951.53;;;17.17;48.00
48390;BME280;34643;47.964;7.982;2023-04-05T11:06:31;96948.09;;;17.16;48.06
48390;BME280;34643;47.964;7.982;2023-04-05T11:11:37;96935.88;;;17.17;48.14
48390;BME280;34643;47.964;7.982;2023-04-05T11:16:38;96935.88;;;17.17;48.40
48390;BME280;34643;47.964;7.982;2023-04-05T11:21:38;96933.19;;;17.18;48.36
48390;BME280;34643;47.964;7.982;2023-04-05T11:31:58;96928.69;;;17.20;48.21
48390;BME280;34643;47.964;7.982;2023-04-05T11:36:59;96924.28;;;17.21;48.34
48390;BME280;34643;47.964;7.982;2023-04-05T11:42:00;96913.84;;;17.21;48.29
48390;BME280;34643;47.964;7.982;2023-04-05T11:47:02;96911.97;;;17.23;48.44
48390;BME280;34643;47.964;7.982;2023-04-05T11:52:16;96915.44;;;17.23;48.45
48390;BME280;34643;47.964;7.982;2023-04-05T11:57:22;96907.44;;;17.38;48.00
48390;BME280;34643;47.964;7.982;2023-04-05T12:02:23;96908.91;;;17.53;47.89
48390;BME280;34643;47.964;7.982;2023-04-05T12:07:26;96900.53;;;17.61;47.91
48390;BME280;34643;47.964;7.982;2023-04-05T12:17:42;96895.47;;;17.71;48.21
48390;BME280;34643;47.964;7.982;2023-04-05T12:22:43;96893.56;;;17.73;48.39
48390;BME280;34643;47.964;7.982;2023-04-05T12:27:43;96890.03;;;17.74;48.46
48390;BME280;34643;47.964;7.982;2023-04-05T12:32:49;96888.13;;;17.76;48.34
48390;BME280;34643;47.964;7.982;2023-04-05T12:37:50;96883.63;;;17.78;48.66
48390;BME280;34643;47.964;7.982;2023-04-05T12:42:50;96878.41;;;17.78;48.61
48390;BME280;34643;47.964;7.982;2023-04-05T12:47:51;96880.19;;;17.77;48.83
48390;BME280;34643;47.964;7.982;2023-04-05T12:52:52;96870.44;;;17.79;48.99
48390;BME280;34643;47.964;7.982;2023-04-05T12:57:59;96870.34;;;17.81;48.80
48390;BME280;34643;47.964;7.982;2023-04-05T13:03:00;96862.50;;;17.81;48.94
48390;BME280;34643;47.964;7.982;2023-04-05T13:08:00;96861.56;;;17.82;49.16
48390;BME280;34643;47.964;7.982;2023-04-05T13:13:01;96858.00;;;17.83;49.14
48390;BME280;34643;47.964;7.982;2023-04-05T13:18:01;96853.50;;;17.85;48.97
48390;BME280;34643;47.964;7.982;2023-04-05T13:23:02;96862.06;;;17.87;49.05
48390;BME280;34643;47.964;7.982;2023-04-05T13:28:02;96854.22;;;17.87;48.90
48390;BME280;34643;47.964;7.982;2023-04-05T13:33:03;96849.00;;;17.87;48.98
48390;BME280;34643;47.964;7.982;2023-04-05T13:38:03;96846.19;;;17.90;48.97
48390;BME280;34643;47.964;7.982;2023-04-05T13:43:04;96847.75;;;17.93;49.36
48390;BME280;34643;47.964;7.982;2023-04-05T13:48:05;96847.59;;;17.94;49.19
48390;BME280;34643;47.964;7.982;2023-04-05T13:53:05;96841.44;;;17.95;49.23
48390;BME280;34643;47.964;7.982;2023-04-05T13:58:05;96842.25;;;17.96;49.32
48390;BME280;34643;47.964;7.982;2023-04-05T14:03:05;96841.34;;;17.97;49.10
48390;BME280;34643;47.964;7.982;2023-04-05T14:08:06;96838.84;;;17.95;49.40
48390;BME280;34643;47.964;7.982;2023-04-05T14:13:06;96829.22;;;17.96;49.12
48390;BME280;34643;47.964;7.982;2023-04-05T14:18:06;96836.22;;;17.95;49.38
48390;BME280;34643;47.964;7.982;2023-04-05T14:23:06;96831.94;;;17.94;49.21
48390;BME280;34643;47.964;7.982;2023-04-05T14:28:07;96825.66;;;17.97;49.46
48390;BME280;34643;47.964;7.982;2023-04-05T14:33:07;96828.38;;;17.95;49.42
48390;BME280;34643;47.964;7.982;2023-04-05T14:38:09;96831.81;;;17.96;49.44
48390;BME280;34643;47.964;7.982;2023-04-05T14:43:09;96824.84;;;17.96;49.48
48390;BME280;34643;47.964;7.982;2023-04-05T14:48:10;96823.16;;;17.95;49.59
48390;BME280;34643;47.964;7.982;2023-04-05T14:53:10;96812.72;;;17.95;49.67
48390;BME280;34643;47.964;7.982;2023-04-05T14:58:10;96811.91;;;17.95;49.50
48390;BME280;34643;47.964;7.982;2023-04-05T15:03:10;96810.22;;;17.94;49.57
48390;BME280;34643;47.964;7.982;2023-04-05T15:08:11;96809.41;;;17.93;49.44
48390;BME280;34643;47.964;7.982;2023-04-05T15:13:11;96812.94;;;17.92;49.46
48390;BME280;34643;47.964;7.982;2023-04-05T15:18:12;96796.44;;;17.92;49.60
48390;BME280;34643;47.964;7.982;2023-04-05T15:23:12;96802.75;;;17.89;49.53
48390;BME280;34643;47.964;7.982;2023-04-05T15:28:12;96799.28;;;17.89;49.54
48390;BME280;34643;47.964;7.982;2023-04-05T15:33:13;96802.00;;;17.87;49.78
48390;BME280;34643;47.964;7.982;2023-04-05T15:38:13;96800.38;;;17.86;49.86
48390;BME280;34643;47.964;7.982;2023-04-05T15:43:13;96796.03;;;17.85;49.89
48390;BME280;34643;47.964;7.982;2023-04-05T15:48:14;96810.06;;;17.84;49.68
48390;BME280;34643;47.964;7.982;2023-04-05T15:53:14;96806.75;;;17.82;49.87
48390;BME280;34643;47.964;7.982;2023-04-05T15:58:14;96802.47;;;17.81;49.82
48390;BME280;34643;47.964;7.982;2023-04-05T16:03:14;96798.16;;;17.80;49.92
48390;BME280;34643;47.964;7.982;2023-04-05T16:08:15;96802.56;;;17.79;49.76
48390;BME280;34643;47.964;7.982;2023-04-05T16:13:15;96793.09;;;17.78;49.72
48390;BME280;34643;47.964;7.982;2023-04-05T16:18:16;96790.59;;;17.77;49.94
48390;BME280;34643;47.964;7.982;2023-04-05T16:23:18;96794.13;;;17.76;49.74
48390;BME280;34643;47.964;7.982;2023-04-05T16:28:18;96795.22;;;17.73;49.92
48390;BME280;34643;47.964;7.982;2023-04-05T16:33:20;96795.22;;;17.73;49.90
48390;BME280;34643;47.964;7.982;2023-04-05T16:38:20;96797.09;;;17.71;49.79
48390;BME280;34643;47.964;7.982;2023-04-05T16:43:20;96798.06;;;17.70;50.00
48390;BME280;34643;47.964;7.982;2023-04-05T16:48:21;96797.22;;;17.70;49.91
48390;BME280;34643;47.964;7.982;2023-04-05T16:53:21;96798.16;;;17.68;49.79
48390;BME280;34643;47.964;7.982;2023-04-05T16:58:21;96794.63;;;17.70;49.86
48390;BME280;34643;47.964;7.982;2023-04-05T17:03:22;96800.44;;;17.73;50.07
48390;BME280;34643;47.964;7.982;2023-04-05T17:08:22;96793.09;;;17.78;50.06
48390;BME280;34643;47.964;7.982;2023-04-05T17:13:23;96798.06;;;17.81;49.67
48390;BME280;34643;47.964;7.982;2023-04-05T17:18:23;96790.13;;;17.83;49.87
48390;BME280;34643;47.964;7.982;2023-04-05T17:23:23;96797.84;;;17.84;49.81
48390;BME280;34643;47.964;7.982;2023-04-05T17:28:24;96803.88;;;17.85;49.81
48390;BME280;34643;47.964;7.982;2023-04-05T17:33:26;96810.00;;;17.85;49.92
48390;BME280;34643;47.964;7.982;2023-04-05T17:38:26;96813.41;;;17.86;50.08
48390;BME280;34643;47.964;7.982;2023-04-05T17:43:26;96813.91;;;17.91;49.82
48390;BME280;34643;47.964;7.982;2023-04-05T17:48:27;96817.22;;;17.93;49.97
48390;BME280;34643;47.964;7.982;2023-04-05T17:53:28;96824.78;;;17.85;50.10
48390;BME280;34643;47.964;7.982;2023-04-05T17:58:28;96827.94;;;18.01;50.07
48390;BME280;34643;47.964;7.982;2023-04-05T18:03:31;96833.38;;;18.10;50.44
48390;BME280;34643;47.964;7.982;2023-04-05T18:08:31;96830.91;;;18.19;50.60
48390;BME280;34643;47.964;7.982;2023-04-05T18:13:31;96832.94;;;18.16;50.82
48390;BME280;34643;47.964;7.982;2023-04-05T18:18:32;96840.88;;;18.14;51.28
48390;BME280;34643;47.964;7.982;2023-04-05T18:23:32;96850.13;;;18.18;51.16
48390;BME280;34643;47.964;7.982;2023-04-05T18:28:32;96851.94;;;18.18;51.32
48390;BME280;34643;47.964;7.982;2023-04-05T18:33:32;96864.03;;;18.19;51.18
48390;BME280;34643;47.964;7.982;2023-04-05T18:38:33;96870.09;;;18.19;51.29
48390;BME280;34643;47.964;7.982;2023-04-05T18:43:33;96864.88;;;18.19;51.44
48390;BME280;34643;47.964;7.982;2023-04-05T18:48:33;96868.44;;;18.18;51.54
48390;BME280;34643;47.964;7.982;2023-04-05T18:53:37;96878.06;;;18.18;51.33
48390;BME280;34643;47.964;7.982;2023-04-05T18:58:38;96891.00;;;18.19;51.46
48390;BME280;34643;47.964;7.982;2023-04-05T19:03:38;96897.06;;;18.20;51.54
48390;BME280;34643;47.964;7.982;2023-04-05T19:08:38;96899.66;;;18.20;51.68
48390;BME280;34643;47.964;7.982;2023-04-05T19:13:39;96900.59;;;18.19;51.58
48390;BME280;34643;47.964;7.982;2023-04-05T19:18:39;96911.91;;;18.19;51.61
48390;BME280;34643;47.964;7.982;2023-04-05T19:23:40;96914.50;;;18.19;51.90
48390;BME280;34643;47.964;7.982;2023-04-05T19:28:40;96912.72;;;18.20;51.78
48390;BME280;34643;47.964;7.982;2023-04-05T19:33:40;96910.94;;;18.20;52.13
48390;BME280;34643;47.964;7.982;2023-04-05T19:38:41;96912.50;;;18.23;52.17
48390;BME280;34643;47.964;7.982;2023-04-05T19:43:41;96918.44;;;18.25;52.14
48390;BME280;34643;47.964;7.982;2023-04-05T19:48:43;96919.16;;;18.27;52.15
48390;BME280;34643;47.964;7.982;2023-04-05T19:53:47;96923.44;;;18.28;52.21
48390;BME280;34643;47.964;7.982;2023-04-05T19:59:00;96926.88;;;18.29;52.11
48390;BME280;34643;47.964;7.982;2023-04-05T20:04:23;96928.53;;;18.30;52.18
48390;BME280;34643;47.964;7.982;2023-04-05T20:09:23;96938.16;;;18.29;52.41
48390;BME280;34643;47.964;7.982;2023-04-05T20:14:28;96932.81;;;18.31;52.32
48390;BME280;34643;47.964;7.982;2023-04-05T20:19:30;96937.09;;;18.32;52.60
48390;BME280;34643;47.964;7.982;2023-04-05T20:24:30;96936.03;;;18.34;52.61
48390;BME280;34643;47.964;7.982;2023-04-05T20:29:30;96925.47;;;18.36;52.40
48390;BME280;34643;47.964;7.982;2023-04-05T20:34:35;96934.13;;;18.36;52.50
48390;BME280;34643;47.964;7.982;2023-04-05T20:39:37;96934.13;;;18.36;52.60
48390;BME280;34643;47.964;7.982;2023-04-05T20:44:37;96930.69;;;18.36;52.46
48390;BME280;34643;47.964;7.982;2023-04-05T20:49:37;96934.13;;;18.36;52.71
48390;BME280;34643;47.964;7.982;2023-04-05T20:54:38;96931.63;;;18.35;52.24
48390;BME280;34643;47.964;7.982;2023-04-05T20:59:38;96924.88;;;18.32;52.64
48390;BME280;34643;47.964;7.982;2023-04-05T21:04:38;96930.09;;;18.32;52.49
48390;BME280;34643;47.964;7.982;2023-04-05T21:09:39;96927.47;;;18.32;52.61
48390;BME280;34643;47.964;7.982;2023-04-05T21:14:39;96934.34;;;18.33;52.42
48390;BME280;34643;47.964;7.982;2023-04-05T21:19:39;96930.09;;;18.32;52.45
48390;BME280;34643;47.964;7.982;2023-04-05T21:24:40;96927.47;;;18.32;52.31
48390;BME280;34643;47.964;7.982;2023-04-05T21:29:40;96919.75;;;18.31;52.27
48390;BME280;34643;47.964;7.982;2023-04-05T21:34:40;96930.41;;;18.28;52.16
48390;BME280;34643;47.964;7.982;2023-04-05T21:39:40;96923.19;;;18.20;52.21
48390;BME280;34643;47.964;7.982;2023-04-05T21:44:41;96930.31;;;18.18;51.77
48390;BME280;34643;47.964;7.982;2023-04-05T21:49:41;96936.47;;;18.17;51.58
48390;BME280;34643;47.964;7.982;2023-04-05T21:54:41;96931.34;;;18.15;51.78
48390;BME280;34643;47.964;7.982;2023-04-05T21:59:42;96933.13;;;18.15;51.58
48390;BME280;34643;47.964;7.982;2023-04-05T22:04:42;96935.03;;;18.13;51.75
48390;BME280;34643;47.964;7.982;2023-04-05T22:09:42;96925.53;;;18.12;51.55
48390;BME280;34643;47.964;7.982;2023-04-05T22:14:43;96929.91;;;18.11;51.51
48390;BME280;34643;47.964;7.982;2023-04-05T22:19:43;96931.72;;;18.11;51.52
48390;BME280;34643;47.964;7.982;2023-04-05T22:24:45;96939.66;;;18.09;51.10
48390;BME280;34643;47.964;7.982;2023-04-05T22:29:46;96937.16;;;18.08;50.87
48390;BME280;34643;47.964;7.982;2023-04-05T22:34:47;96937.97;;;18.08;51.08
48390;BME280;34643;47.964;7.982;2023-04-05T22:39:48;96940.59;;;18.08;51.19
48390;BME280;34643;47.964;7.982;2023-04-05T22:44:48;96932.03;;;18.06;51.06
48390;BME280;34643;47.964;7.982;2023-04-05T22:49:49;96922.41;;;18.07;50.96
48390;BME280;34643;47.964;7.982;2023-04-05T22:54:49;96930.25;;;18.07;50.79
48390;BME280;34643;47.964;7.982;2023-04-05T22:59:50;96919.09;;;18.04;50.63
48390;BME280;34643;47.964;7.982;2023-04-05T23:04:50;96928.72;;;18.04;50.93
48390;BME280;34643;47.964;7.982;2023-04-05T23:09:50;96919.19;;;18.03;50.67
48390;BME280;34643;47.964;7.982;2023-04-05T23:14:51;96932.25;;;18.03;50.64
48390;BME280;34643;47.964;7.982;2023-04-05T23:19:51;96926.22;;;18.02;50.68
48390;BME280;34643;47.964;7.982;2023-04-05T23:24:51;96922.78;;;18.02;50.33
48390;BME280;34643;47.964;7.982;2023-04-05T23:29:52;96909.00;;;18.00;50.17
48390;BME280;34643;47.964;7.982;2023-04-05T23:34:52;96908.16;;;17.99;50.29
48390;BME280;34643;47.964;7.982;2023-04-05T23:39:52;96909.00;;;18.00;50.20
48390;BME280;34643;47.964;7.982;2023-04-05T23:44:53;96908.28;;;17.98;50.00
48390;BME280;34643;47.964;7.982;2023-04-05T23:49:53;96905.53;;;17.99;50.13
48390;BME280;34643;47.964;7.982;2023-04-05T23:54:54;96902.22;;;17.97;50.08
48390;BME280;34643;47.964;7.982;2023-04-05T23:59:54;96901.28;;;17.98;49.84
